createdAt,value
2022-09-01T00:02:21.099Z,62.63
2022-09-01T00:04:47.849Z,62.54
2022-09-01T00:07:16.869Z,62.75
2022-09-01T00:09:43.597Z,62.79
2022-09-01T00:12:10.179Z,62.95
2022-09-01T00:14:41.591Z,63.05
2022-09-01T00:17:10.673Z,62.54
2022-09-01T00:19:37.926Z,62.26
2022-09-01T00:22:05.074Z,62.51
2022-09-01T00:24:32.395Z,62.40
2022-09-01T00:26:59.045Z,62.68
2022-09-01T00:29:26.185Z,62.83
2022-09-01T00:31:53.239Z,63.05
2022-09-01T00:34:20.409Z,63.30
2022-09-01T00:36:48.079Z,63.16
2022-09-01T00:39:15.586Z,62.86
2022-09-01T00:41:44.145Z,63.25
2022-09-01T00:44:14.174Z,62.72
2022-09-01T00:46:50.416Z,62.84
2022-09-01T00:49:44.994Z,62.96
2022-09-01T00:52:15.748Z,62.65
2022-09-01T00:54:46.298Z,62.42
2022-09-01T00:57:15.448Z,62.77
2022-09-01T00:59:56.634Z,62.82
2022-09-01T01:02:23.704Z,62.80
2022-09-01T01:04:52.635Z,62.29
2022-09-01T01:07:22.969Z,62.47
2022-09-01T01:09:51.282Z,62.53
2022-09-01T01:12:18.548Z,62.87
2022-09-01T01:14:50.438Z,62.90
2022-09-01T01:17:19.995Z,62.91
2022-09-01T01:20:09.325Z,63.32
2022-09-01T01:22:58.048Z,64.85
2022-09-01T01:25:25.524Z,64.82
2022-09-01T01:27:52.551Z,64.19
2022-09-01T01:30:20.959Z,64.22
2022-09-01T01:32:49.358Z,64.77
2022-09-01T01:35:17.532Z,64.63
2022-09-01T01:37:49.051Z,64.35
2022-09-01T01:40:22.751Z,64.14
2022-09-01T01:42:52.653Z,63.76
2022-09-01T01:45:22.834Z,63.25
2022-09-01T01:47:53.495Z,62.94
2022-09-01T01:50:29.892Z,62.72
2022-09-01T01:52:58.807Z,62.45
2022-09-01T01:55:28.989Z,61.44
2022-09-01T01:57:59.190Z,60.21
2022-09-01T02:00:35.042Z,60.00
2022-09-01T02:03:02.882Z,60.11
2022-09-01T02:05:33.288Z,60.15
2022-09-01T02:08:04.370Z,60.29
2022-09-01T02:10:34.546Z,61.46
2022-09-01T02:13:07.108Z,61.36
2022-09-01T02:15:42.321Z,62.06
2022-09-01T02:18:09.074Z,62.22
2022-09-01T02:20:35.590Z,62.40
2022-09-01T02:23:10.770Z,62.69
2022-09-01T02:26:05.239Z,63.12
2022-09-01T02:28:37.165Z,63.40
2022-09-01T02:31:08.970Z,63.88
2022-09-01T02:33:39.357Z,63.70
2022-09-01T02:36:13.873Z,64.00
2022-09-01T02:38:46.814Z,64.08
2022-09-01T02:41:21.745Z,63.93
2022-09-01T02:43:49.106Z,63.47
2022-09-01T02:46:16.279Z,63.86
2022-09-01T02:48:46.099Z,63.88
2022-09-01T02:51:16.815Z,63.84
2022-09-01T02:53:49.715Z,63.72
2022-09-01T02:56:18.211Z,63.73
2022-09-01T02:58:46.471Z,63.58
2022-09-01T03:01:22.660Z,63.87
2022-09-01T03:03:51.521Z,63.83
2022-09-01T03:06:24.008Z,64.01
2022-09-01T03:08:52.687Z,64.20
2022-09-01T03:11:19.315Z,63.94
2022-09-01T03:13:46.553Z,63.35
2022-09-01T03:16:13.510Z,63.76
2022-09-01T03:18:40.404Z,63.85
2022-09-01T03:21:08.469Z,64.47
2022-09-01T03:23:35.810Z,64.50
2022-09-01T03:26:02.961Z,64.48
2022-09-01T03:28:30.117Z,64.37
2022-09-01T03:30:58.183Z,64.50
2022-09-01T03:33:27.962Z,64.63
2022-09-01T03:35:56.856Z,64.11
2022-09-01T03:38:25.246Z,63.84
2022-09-01T03:41:00.899Z,63.47
2022-09-01T03:43:34.483Z,64.06
2022-09-01T03:46:03.524Z,63.50
2022-09-01T03:48:31.979Z,64.11
2022-09-01T03:51:02.566Z,63.72
2022-09-01T03:53:34.242Z,63.69
2022-09-01T03:56:01.568Z,63.35
2022-09-01T03:58:28.598Z,63.84
2022-09-01T04:01:00.841Z,63.95
2022-09-01T04:03:31.902Z,64.34
2022-09-01T04:06:01.440Z,63.96
2022-09-01T04:08:32.492Z,64.02
2022-09-01T04:11:05.199Z,63.96
2022-09-01T04:13:37.245Z,64.26
2022-09-01T04:16:10.632Z,64.97
2022-09-01T04:18:40.086Z,64.67
2022-09-01T04:21:08.102Z,64.89
2022-09-01T04:23:37.144Z,64.85
2022-09-01T04:26:11.374Z,64.74
2022-09-01T04:28:45.898Z,65.38
2022-09-01T04:31:19.328Z,65.32
2022-09-01T04:33:52.774Z,64.94
2022-09-01T04:36:25.191Z,65.19
2022-09-01T04:38:57.674Z,65.39
2022-09-01T04:41:31.005Z,65.12
2022-09-01T04:44:04.650Z,65.73
2022-09-01T04:46:39.583Z,65.59
2022-09-01T04:49:13.030Z,65.15
2022-09-01T04:51:42.276Z,65.38
2022-09-01T04:54:14.766Z,65.40
2022-09-01T04:56:45.207Z,65.48
2022-09-01T04:59:17.233Z,64.67
2022-09-01T05:01:51.008Z,64.72
2022-09-01T05:04:24.434Z,65.00
2022-09-01T05:06:57.020Z,65.17
2022-09-01T05:09:25.224Z,65.24
2022-09-01T05:12:12.961Z,65.14
2022-09-01T05:14:48.632Z,65.19
2022-09-01T05:17:18.653Z,65.24
2022-09-01T05:19:48.386Z,64.30
2022-09-01T05:22:17.691Z,63.70
2022-09-01T05:24:55.414Z,63.31
2022-09-01T05:27:22.976Z,64.18
2022-09-01T05:29:50.439Z,64.46
2022-09-01T05:32:17.638Z,63.77
2022-09-01T05:34:46.076Z,63.69
2022-09-01T05:37:14.567Z,64.49
2022-09-01T05:39:41.352Z,63.78
2022-09-01T05:42:08.401Z,64.41
2022-09-01T05:44:44.017Z,63.43
2022-09-01T05:47:20.970Z,62.94
2022-09-01T05:49:50.446Z,63.76
2022-09-01T05:52:17.169Z,62.82
2022-09-01T05:54:45.991Z,62.71
2022-09-01T05:57:33.165Z,63.38
2022-09-01T06:00:00.394Z,62.64
2022-09-01T06:02:27.723Z,61.74
2022-09-01T06:04:57.307Z,62.02
2022-09-01T06:07:29.277Z,63.11
2022-09-01T06:09:59.743Z,63.27
2022-09-01T06:12:28.069Z,62.68
2022-09-01T06:14:56.153Z,63.48
2022-09-01T06:17:25.746Z,62.48
2022-09-01T06:19:58.535Z,62.74
2022-09-01T06:22:28.191Z,63.51
2022-09-01T06:25:02.417Z,62.75
2022-09-01T06:27:41.157Z,62.30
2022-09-01T06:30:15.020Z,62.98
2022-09-01T06:32:49.604Z,62.59
2022-09-01T06:35:18.108Z,62.73
2022-09-01T06:37:46.126Z,63.31
2022-09-01T06:40:25.453Z,62.89
2022-09-01T06:42:53.279Z,62.92
2022-09-01T06:45:22.689Z,63.62
2022-09-01T06:47:52.301Z,63.34
2022-09-01T06:53:32.554Z,64.31
2022-09-01T06:56:02.866Z,63.99
2022-09-01T06:58:31.154Z,64.44
2022-09-01T07:00:57.946Z,63.92
2022-09-01T07:03:25.757Z,63.90
2022-09-01T07:06:07.004Z,63.79
2022-09-01T07:12:24.393Z,63.64
2022-09-01T07:17:42.319Z,63.24
2022-09-01T07:20:26.775Z,64.50
2022-09-01T07:23:04.494Z,65.94
2022-09-01T07:26:00.630Z,66.17
2022-09-01T07:28:39.872Z,67.59
2022-09-01T07:39:55.164Z,64.88
2022-09-01T07:51:42.119Z,62.93
2022-09-01T07:54:09.166Z,61.82
2022-09-01T07:56:40.179Z,61.29
2022-09-01T07:59:12.703Z,60.03
2022-09-01T08:02:05.798Z,58.34
2022-09-01T08:04:34.041Z,57.57
2022-09-01T08:07:01.139Z,57.74
2022-09-01T08:09:37.874Z,59.68
2022-09-01T08:12:08.346Z,58.95
2022-09-01T08:14:42.234Z,58.74
2022-09-01T08:17:18.363Z,58.78
2022-09-01T08:19:58.952Z,60.05
2022-09-01T08:22:48.662Z,59.54
2022-09-01T08:25:25.045Z,58.92
2022-09-01T08:27:59.677Z,57.95
2022-09-01T08:30:27.862Z,59.02
2022-09-01T08:32:54.854Z,58.17
2022-09-01T08:35:22.130Z,57.26
2022-09-01T08:37:48.707Z,58.66
2022-09-01T08:40:21.221Z,58.53
2022-09-01T08:43:34.361Z,57.96
2022-09-01T08:46:13.030Z,58.16
2022-09-01T08:49:24.097Z,57.08
2022-09-01T08:52:27.991Z,56.36
2022-09-01T08:55:06.199Z,53.66
2022-09-01T08:57:39.628Z,53.81
2022-09-01T09:00:23.334Z,53.20
2022-09-01T09:03:02.614Z,54.96
2022-09-01T09:05:40.151Z,55.10
2022-09-01T09:08:54.375Z,55.74
2022-09-01T09:12:01.665Z,54.92
2022-09-01T09:14:49.200Z,54.28
2022-09-01T09:17:18.716Z,54.50
2022-09-01T09:19:45.662Z,56.56
2022-09-01T09:22:19.431Z,55.63
2022-09-01T09:24:52.538Z,56.66
2022-09-01T09:27:29.530Z,56.79
2022-09-01T09:30:04.355Z,55.45
2022-09-01T09:33:15.946Z,55.94
2022-09-01T09:35:42.071Z,54.57
2022-09-01T09:38:21.681Z,53.83
2022-09-01T09:44:41.241Z,56.41
2022-09-01T09:47:33.496Z,55.23
2022-09-01T09:50:15.345Z,54.17
2022-09-01T09:52:43.166Z,56.43
2022-09-01T09:55:30.193Z,56.42
2022-09-01T09:57:59.929Z,56.49
2022-09-01T10:00:30.361Z,56.37
2022-09-01T10:03:11.216Z,54.28
2022-09-01T10:05:56.452Z,56.07
2022-09-01T10:08:37.103Z,57.01
2022-09-01T10:11:06.007Z,57.33
2022-09-01T10:13:36.640Z,55.93
2022-09-01T10:16:10.396Z,56.65
2022-09-01T10:18:41.588Z,57.93
2022-09-01T10:21:12.402Z,56.60
2022-09-01T10:23:41.403Z,58.04
2022-09-01T10:26:22.645Z,56.18
2022-09-01T10:29:01.342Z,57.42
2022-09-01T10:31:32.526Z,55.06
2022-09-01T10:34:02.795Z,57.11
2022-09-01T10:36:33.513Z,58.25
2022-09-01T10:39:06.139Z,56.06
2022-09-01T10:41:59.833Z,57.71
2022-09-01T10:44:33.649Z,58.84
2022-09-01T10:47:24.032Z,57.35
2022-09-01T10:49:50.668Z,56.10
2022-09-01T10:52:43.333Z,56.19
2022-09-01T10:55:15.227Z,56.38
2022-09-01T10:57:51.090Z,54.03
2022-09-01T11:00:36.192Z,56.28
2022-09-01T11:06:13.357Z,53.97
2022-09-01T11:08:48.295Z,54.90
2022-09-01T11:11:44.219Z,55.92
2022-09-01T11:14:20.102Z,56.54
2022-09-01T11:17:26.242Z,54.42
2022-09-01T11:20:27.561Z,55.81
2022-09-01T11:22:57.029Z,52.99
2022-09-01T11:25:42.281Z,52.78
2022-09-01T11:28:15.172Z,53.71
2022-09-01T11:30:55.315Z,54.03
2022-09-01T11:33:47.955Z,53.33
2022-09-01T11:36:35.387Z,51.99
2022-09-01T11:39:29.998Z,52.68
2022-09-01T11:42:04.377Z,51.17
2022-09-01T11:44:52.763Z,52.67
2022-09-01T11:47:44.146Z,50.58
2022-09-01T11:50:27.990Z,50.18
2022-09-01T11:53:02.549Z,51.51
2022-09-01T11:55:43.574Z,51.25
2022-09-01T11:58:39.134Z,49.89
2022-09-01T12:01:31.181Z,51.08
2022-09-01T12:03:58.940Z,50.26
2022-09-01T12:06:29.522Z,50.79
2022-09-01T12:09:03.052Z,51.35
2022-09-01T12:11:33.070Z,52.14
2022-09-01T12:14:11.559Z,52.03
2022-09-01T12:16:42.380Z,50.96
2022-09-01T12:19:24.026Z,51.61
2022-09-01T12:22:00.370Z,52.78
2022-09-01T12:24:30.460Z,52.85
2022-09-01T12:27:01.099Z,53.09
2022-09-01T12:29:32.168Z,53.11
2022-09-01T12:32:00.405Z,52.62
2022-09-01T12:34:28.774Z,53.91
2022-09-01T12:37:12.834Z,52.41
2022-09-01T12:39:46.130Z,53.15
2022-09-01T12:42:27.200Z,52.25
2022-09-01T12:45:05.255Z,52.41
2022-09-01T12:47:38.356Z,53.45
2022-09-01T12:50:16.453Z,53.54
2022-09-01T12:52:53.810Z,54.65
2022-09-01T12:58:12.177Z,52.89
2022-09-01T13:00:58.792Z,54.19
2022-09-01T13:03:27.648Z,55.23
2022-09-01T13:05:56.146Z,55.18
2022-09-01T13:08:28.937Z,54.75
2022-09-01T13:11:01.152Z,54.90
2022-09-01T13:13:28.616Z,55.53
2022-09-01T13:16:00.047Z,54.65
2022-09-01T13:18:28.654Z,54.52
2022-09-01T13:20:56.493Z,53.92
2022-09-01T13:23:23.965Z,53.06
2022-09-01T13:25:50.667Z,53.81
2022-09-01T13:28:17.903Z,54.06
2022-09-01T13:31:28.559Z,53.31
2022-09-01T13:36:45.240Z,53.68
2022-09-01T13:39:13.738Z,53.92
2022-09-01T13:41:40.314Z,54.00
2022-09-01T13:44:09.902Z,54.07
2022-09-01T13:46:58.947Z,53.85
2022-09-01T13:52:10.550Z,53.88
2022-09-01T13:54:37.174Z,53.26
2022-09-01T13:57:04.059Z,53.94
2022-09-01T13:59:30.855Z,53.35
2022-09-01T14:01:57.598Z,53.79
2022-09-01T14:04:24.377Z,53.39
2022-09-01T14:06:51.423Z,53.57
2022-09-01T14:09:18.174Z,54.42
2022-09-01T14:11:45.157Z,53.22
2022-09-01T14:14:11.974Z,54.01
2022-09-01T14:16:38.705Z,53.28
2022-09-01T14:19:05.419Z,53.17
2022-09-01T14:21:32.349Z,53.11
2022-09-01T14:23:59.628Z,52.19
2022-09-01T14:26:28.095Z,52.52
2022-09-01T14:28:55.086Z,53.01
2022-09-01T14:31:22.203Z,52.47
2022-09-01T14:33:49.137Z,52.59
2022-09-01T14:36:25.107Z,52.67
2022-09-01T14:38:52.938Z,52.99
2022-09-01T14:41:24.105Z,53.13
2022-09-01T14:43:57.665Z,53.21
2022-09-01T14:46:26.748Z,52.86
2022-09-01T14:48:53.438Z,52.45
2022-09-01T14:52:10.323Z,52.86
2022-09-01T14:54:15.100Z,51.75
2022-09-01T14:56:41.902Z,51.52
2022-09-01T14:59:09.481Z,52.18
2022-09-01T15:01:36.555Z,51.60
2022-09-01T15:04:03.909Z,52.33
2022-09-01T15:06:31.260Z,51.75
2022-09-01T15:08:57.956Z,52.53
2022-09-01T15:11:24.598Z,52.88
2022-09-01T15:13:52.142Z,52.85
2022-09-01T15:16:23.243Z,52.38
2022-09-01T15:18:50.566Z,52.76
2022-09-01T15:21:30.719Z,52.87
2022-09-01T15:23:59.186Z,52.84
2022-09-01T15:26:26.457Z,53.07
2022-09-01T15:28:53.903Z,52.92
2022-09-01T15:31:28.623Z,52.92
2022-09-01T15:34:03.234Z,52.50
2022-09-01T15:36:30.789Z,52.55
2022-09-01T15:38:58.688Z,52.67
2022-09-01T15:41:30.768Z,52.42
2022-09-01T15:43:58.327Z,52.28
2022-09-01T15:46:32.024Z,52.05
2022-09-01T15:49:00.488Z,51.36
2022-09-01T15:51:37.349Z,51.26
2022-09-01T15:54:07.844Z,50.71
2022-09-01T15:56:35.088Z,50.85
2022-09-01T15:59:04.219Z,52.29
2022-09-01T16:01:33.402Z,51.03
2022-09-01T16:04:01.189Z,51.21
2022-09-01T16:06:28.000Z,51.07
2022-09-01T16:08:55.112Z,50.63
2022-09-01T16:11:23.521Z,51.13
2022-09-01T16:13:53.673Z,50.58
2022-09-01T16:16:40.956Z,50.95
2022-09-01T16:19:17.118Z,50.75
2022-09-01T16:22:02.208Z,49.74
2022-09-01T16:24:29.443Z,50.45
2022-09-01T16:26:56.702Z,50.39
2022-09-01T16:29:40.990Z,50.34
2022-09-01T16:32:11.281Z,50.01
2022-09-01T16:34:46.690Z,50.64
2022-09-01T16:37:16.988Z,49.32
2022-09-01T16:39:53.777Z,49.80
2022-09-01T16:42:40.360Z,50.54
2022-09-01T16:45:28.381Z,49.75
2022-09-01T16:47:57.797Z,49.94
2022-09-01T16:50:40.189Z,49.76
2022-09-01T16:53:15.792Z,49.77
2022-09-01T16:55:48.396Z,51.08
2022-09-01T16:58:25.472Z,50.24
2022-09-01T17:00:58.774Z,50.87
2022-09-01T17:04:01.033Z,50.90
2022-09-01T17:06:31.810Z,50.68
2022-09-01T17:09:10.522Z,51.59
2022-09-01T17:11:49.111Z,51.25
2022-09-01T17:14:27.681Z,51.39
2022-09-01T17:17:08.250Z,51.79
2022-09-01T17:19:39.156Z,51.81
2022-09-01T17:22:16.303Z,52.16
2022-09-01T17:24:58.104Z,52.63
2022-09-01T17:27:48.034Z,52.94
2022-09-01T17:30:14.910Z,53.23
2022-09-01T17:33:05.010Z,53.82
2022-09-01T17:35:55.940Z,54.81
2022-09-01T17:38:49.184Z,56.80
2022-09-01T17:41:37.310Z,57.68
2022-09-01T17:44:22.156Z,59.00
2022-09-01T17:46:59.193Z,60.87
2022-09-01T17:49:46.032Z,62.49
2022-09-01T17:52:31.074Z,65.09
2022-09-01T17:55:43.689Z,65.49
2022-09-01T17:58:39.615Z,66.16
2022-09-01T18:01:09.776Z,67.57
2022-09-01T18:03:54.363Z,66.69
2022-09-01T18:06:52.644Z,69.38
2022-09-01T18:09:24.074Z,68.87
2022-09-01T18:11:57.914Z,70.29
2022-09-01T18:14:30.488Z,71.76
2022-09-01T18:16:57.058Z,70.84
2022-09-01T18:19:28.920Z,71.85
2022-09-01T18:22:00.408Z,73.21
2022-09-01T18:24:35.439Z,73.67
2022-09-01T18:27:02.023Z,74.30
2022-09-01T18:29:31.211Z,72.96
2022-09-01T18:32:32.190Z,74.17
2022-09-01T18:35:13.835Z,74.08
2022-09-01T18:38:18.067Z,72.56
2022-09-01T18:41:02.174Z,73.56
2022-09-01T18:43:44.256Z,73.42
2022-09-01T18:46:58.113Z,74.29
2022-09-01T18:49:33.762Z,74.78
2022-09-01T18:52:37.507Z,75.08
2022-09-01T18:55:21.117Z,74.70
2022-09-01T18:57:53.186Z,75.02
2022-09-01T19:00:22.100Z,74.95
2022-09-01T19:03:07.576Z,73.99
2022-09-01T19:05:49.296Z,74.97
2022-09-01T19:08:51.416Z,73.51
2022-09-01T19:11:34.661Z,74.22
2022-09-01T19:14:16.719Z,74.86
2022-09-01T19:17:02.035Z,75.04
2022-09-01T19:19:37.490Z,75.87
2022-09-01T19:22:04.262Z,75.86
2022-09-01T19:24:43.449Z,75.40
2022-09-01T19:27:14.584Z,75.55
2022-09-01T19:29:49.818Z,76.18
2022-09-01T19:32:19.387Z,75.56
2022-09-01T19:34:53.272Z,75.74
2022-09-01T19:37:21.359Z,76.27
2022-09-01T19:39:53.987Z,73.53
2022-09-01T19:42:25.361Z,76.20
2022-09-01T19:45:27.798Z,75.04
2022-09-01T19:48:35.059Z,75.17
2022-09-01T19:51:20.591Z,75.80
2022-09-01T19:54:22.438Z,75.98
2022-09-01T19:56:54.343Z,76.00
2022-09-01T19:59:28.180Z,77.57
2022-09-01T20:02:09.225Z,74.95
2022-09-01T20:04:48.922Z,77.06
2022-09-01T20:07:34.508Z,77.45
2022-09-01T20:10:01.637Z,76.63
2022-09-01T20:12:41.424Z,79.58
2022-09-01T20:15:13.645Z,78.68
2022-09-01T20:17:48.309Z,79.84
2022-09-01T20:20:38.234Z,78.55
2022-09-01T20:23:11.246Z,77.33
2022-09-01T20:25:46.400Z,78.29
2022-09-01T20:29:04.077Z,78.09
2022-09-01T20:31:41.792Z,78.12
2022-09-01T20:34:17.078Z,78.51
2022-09-01T20:36:48.946Z,76.79
2022-09-01T20:39:46.589Z,75.25
2022-09-01T20:42:31.338Z,76.43
2022-09-01T20:45:03.186Z,76.65
2022-09-01T20:47:31.605Z,75.10
2022-09-01T20:50:00.977Z,73.56
2022-09-01T20:52:33.476Z,72.97
2022-09-01T20:55:30.550Z,74.33
2022-09-01T20:57:57.208Z,74.74
2022-09-01T21:00:28.888Z,74.67
2022-09-01T21:03:02.701Z,74.07
2022-09-01T21:05:41.617Z,74.81
2022-09-01T21:08:37.063Z,75.43
2022-09-01T21:11:20.890Z,75.25
2022-09-01T21:14:14.018Z,76.19
2022-09-01T21:17:11.506Z,76.04
2022-09-01T21:20:08.409Z,75.55
2022-09-01T21:22:35.292Z,75.35
2022-09-01T21:25:02.140Z,75.41
2022-09-01T21:27:37.019Z,74.96
2022-09-01T21:30:10.170Z,74.88
2022-09-01T21:32:37.322Z,74.60
2022-09-01T21:35:06.999Z,73.20
2022-09-01T21:37:33.776Z,73.08
2022-09-01T21:40:00.693Z,73.45
2022-09-01T21:42:32.852Z,73.53
2022-09-01T21:45:01.625Z,73.97
2022-09-01T21:47:28.625Z,74.05
2022-09-01T21:49:55.827Z,72.56
2022-09-01T21:52:22.599Z,73.14
2022-09-01T21:54:49.274Z,74.26
2022-09-01T21:57:15.963Z,73.72
2022-09-01T21:59:42.582Z,74.91
2022-09-01T22:02:09.259Z,74.34
2022-09-01T22:04:37.630Z,74.44
2022-09-01T22:07:05.576Z,74.82
2022-09-01T22:09:32.540Z,75.03
2022-09-01T22:11:59.062Z,75.32
2022-09-01T22:14:27.951Z,75.11
2022-09-01T22:16:54.745Z,75.47
2022-09-01T22:19:21.456Z,75.97
2022-09-01T22:21:48.452Z,75.67
2022-09-01T22:24:19.044Z,74.88
2022-09-01T22:26:46.730Z,74.87
2022-09-01T22:29:13.368Z,73.95
2022-09-01T22:31:40.584Z,73.24
2022-09-01T22:34:07.651Z,72.67
2022-09-01T22:36:38.754Z,73.76
2022-09-01T22:39:07.869Z,73.83
2022-09-01T22:41:35.535Z,73.75
2022-09-01T22:44:03.550Z,74.35
2022-09-01T22:46:31.151Z,74.76
2022-09-01T22:48:59.508Z,74.55
2022-09-01T22:51:26.722Z,74.80
2022-09-01T22:53:54.572Z,75.70
2022-09-01T22:56:28.442Z,75.88
2022-09-01T22:58:56.942Z,75.82
2022-09-01T23:01:26.867Z,74.70
2022-09-01T23:03:56.217Z,75.46
2022-09-01T23:06:28.024Z,75.60
2022-09-01T23:08:59.954Z,76.22
2022-09-01T23:11:27.383Z,76.46
2022-09-01T23:13:54.774Z,76.15
2022-09-01T23:16:23.367Z,76.10
2022-09-01T23:18:51.492Z,75.26
2022-09-01T23:21:22.240Z,74.38
2022-09-01T23:23:50.723Z,74.20
2022-09-01T23:26:26.709Z,74.93
2022-09-01T23:28:54.062Z,75.03
2022-09-01T23:31:24.625Z,75.72
2022-09-01T23:33:51.930Z,75.72
2022-09-01T23:36:24.769Z,76.88
2022-09-01T23:38:52.409Z,77.22
2022-09-01T23:41:30.881Z,78.30
2022-09-01T23:44:01.368Z,78.25
2022-09-01T23:46:32.420Z,78.03
2022-09-01T23:48:59.054Z,78.93
2022-09-01T23:51:26.005Z,78.98
2022-09-01T23:53:53.483Z,79.24
2022-09-01T23:56:22.946Z,79.07
2022-09-01T23:58:50.089Z,79.68
